sensor_id;sensor_type;location;lat;lon;timestamp;temperature;humidity
60353;DHT22;46196;52.970;6.954;2022-07-29T00:00:04;15.30;99.90
60353;DHT22;46196;52.970;6.954;2022-07-29T00:02:30;15.30;99.90
60353;DHT22;46196;52.970;6.954;2022-07-29T00:04:57;15.30;99.90
60353;DHT22;46196;52.970;6.954;2022-07-29T00:07:23;15.30;99.90
60353;DHT22;46196;52.970;6.954;2022-07-29T00:09:48;15.30;99.90
60353;DHT22;46196;52.970;6.954;2022-07-29T00:12:14;15.30;99.90
60353;DHT22;46196;52.970;6.954;2022-07-29T00:14:40;15.30;99.90
60353;DHT22;46196;52.970;6.954;2022-07-29T00:17:05;15.30;99.90
60353;DHT22;46196;52.970;6.954;2022-07-29T00:19:31;15.20;99.90
60353;DHT22;46196;52.970;6.954;2022-07-29T00:21:57;15.20;99.90
60353;DHT22;46196;52.970;6.954;2022-07-29T00:24:22;15.20;99.90
60353;DHT22;46196;52.970;6.954;2022-07-29T00:26:48;15.20;99.90
60353;DHT22;46196;52.970;6.954;2022-07-29T00:29:13;15.20;99.90
60353;DHT22;46196;52.970;6.954;2022-07-29T00:31:39;15.20;99.90
60353;DHT22;46196;52.970;6.954;2022-07-29T00:34:05;15.20;99.90
60353;DHT22;46196;52.970;6.954;2022-07-29T00:36:51;15.20;99.90
60353;DHT22;46196;52.970;6.954;2022-07-29T00:39:16;15.20;99.90
60353;DHT22;46196;52.970;6.954;2022-07-29T00:41:42;15.10;99.90
60353;DHT22;46196;52.970;6.954;2022-07-29T00:44:08;15.10;99.90
60353;DHT22;46196;52.970;6.954;2022-07-29T00:46:33;15.10;99.90
60353;DHT22;46196;52.970;6.954;2022-07-29T00:48:59;15.10;99.90
60353;DHT22;46196;52.970;6.954;2022-07-29T00:51:25;15.10;99.90
60353;DHT22;46196;52.970;6.954;2022-07-29T00:53:51;15.10;99.90
60353;DHT22;46196;52.970;6.954;2022-07-29T00:56:18;15.00;99.90
60353;DHT22;46196;52.970;6.954;2022-07-29T00:58:43;15.00;99.90
60353;DHT22;46196;52.970;6.954;2022-07-29T01:01:10;15.00;99.90
60353;DHT22;46196;52.970;6.954;2022-07-29T01:03:35;15.00;99.90
60353;DHT22;46196;52.970;6.954;2022-07-29T01:06:01;15.00;99.90
60353;DHT22;46196;52.970;6.954;2022-07-29T01:08:27;14.90;99.90
60353;DHT22;46196;52.970;6.954;2022-07-29T01:10:52;14.90;99.90
60353;DHT22;46196;52.970;6.954;2022-07-29T01:13:19;14.90;99.90
60353;DHT22;46196;52.970;6.954;2022-07-29T01:15:54;15.80;99.90
60353;DHT22;46196;52.970;6.954;2022-07-29T01:18:22;14.90;99.90
60353;DHT22;46196;52.970;6.954;2022-07-29T01:30:45;14.90;99.90
60353;DHT22;46196;52.970;6.954;2022-07-29T01:33:13;14.90;99.90
60353;DHT22;46196;52.970;6.954;2022-07-29T01:36:07;14.90;99.90
60353;DHT22;46196;52.970;6.954;2022-07-29T01:38:33;14.90;99.90
60353;DHT22;46196;52.970;6.954;2022-07-29T01:43:34;14.90;99.90
60353;DHT22;46196;52.970;6.954;2022-07-29T01:46:02;14.90;99.90
60353;DHT22;46196;52.970;6.954;2022-07-29T01:48:48;14.90;99.90
60353;DHT22;46196;52.970;6.954;2022-07-29T01:56:45;14.90;99.90
60353;DHT22;46196;52.970;6.954;2022-07-29T01:59:12;14.90;99.90
60353;DHT22;46196;52.970;6.954;2022-07-29T02:01:39;15.00;99.90
60353;DHT22;46196;52.970;6.954;2022-07-29T02:04:06;15.00;99.90
60353;DHT22;46196;52.970;6.954;2022-07-29T02:06:33;15.00;99.90
60353;DHT22;46196;52.970;6.954;2022-07-29T02:09:01;15.00;99.90
60353;DHT22;46196;52.970;6.954;2022-07-29T02:11:27;15.00;99.90
60353;DHT22;46196;52.970;6.954;2022-07-29T02:13:55;15.00;99.90
60353;DHT22;46196;52.970;6.954;2022-07-29T02:16:21;15.00;99.90
60353;DHT22;46196;52.970;6.954;2022-07-29T02:18:48;15.00;99.90
60353;DHT22;46196;52.970;6.954;2022-07-29T02:21:16;15.00;99.90
60353;DHT22;46196;52.970;6.954;2022-07-29T02:23:44;15.00;99.90
60353;DHT22;46196;52.970;6.954;2022-07-29T02:26:11;15.10;99.90
60353;DHT22;46196;52.970;6.954;2022-07-29T02:28:37;15.10;99.90
60353;DHT22;46196;52.970;6.954;2022-07-29T02:31:04;15.10;99.90
60353;DHT22;46196;52.970;6.954;2022-07-29T02:33:30;15.00;99.90
60353;DHT22;46196;52.970;6.954;2022-07-29T02:35:56;15.10;99.90
60353;DHT22;46196;52.970;6.954;2022-07-29T02:38:23;15.10;99.90
60353;DHT22;46196;52.970;6.954;2022-07-29T02:41:08;15.10;99.90
60353;DHT22;46196;52.970;6.954;2022-07-29T02:43:36;15.10;99.90
60353;DHT22;46196;52.970;6.954;2022-07-29T02:46:02;15.00;99.90
60353;DHT22;46196;52.970;6.954;2022-07-29T02:48:41;15.00;99.90
60353;DHT22;46196;52.970;6.954;2022-07-29T02:51:08;15.00;99.90
60353;DHT22;46196;52.970;6.954;2022-07-29T02:53:37;15.00;99.90
60353;DHT22;46196;52.970;6.954;2022-07-29T02:56:23;15.00;99.90
60353;DHT22;46196;52.970;6.954;2022-07-29T02:58:53;15.00;99.90
60353;DHT22;46196;52.970;6.954;2022-07-29T03:01:20;15.00;99.90
60353;DHT22;46196;52.970;6.954;2022-07-29T03:03:46;15.00;99.90
60353;DHT22;46196;52.970;6.954;2022-07-29T03:06:13;15.00;99.90
60353;DHT22;46196;52.970;6.954;2022-07-29T03:08:40;15.00;99.90
60353;DHT22;46196;52.970;6.954;2022-07-29T03:11:07;15.00;99.90
60353;DHT22;46196;52.970;6.954;2022-07-29T03:13:33;15.00;99.90
60353;DHT22;46196;52.970;6.954;2022-07-29T03:16:00;16.20;99.90
60353;DHT22;46196;52.970;6.954;2022-07-29T03:18:26;15.00;99.90
60353;DHT22;46196;52.970;6.954;2022-07-29T03:20:52;15.00;99.90
60353;DHT22;46196;52.970;6.954;2022-07-29T03:23:18;15.00;99.90
60353;DHT22;46196;52.970;6.954;2022-07-29T03:25:44;15.00;99.90
60353;DHT22;46196;52.970;6.954;2022-07-29T03:28:10;15.00;99.90
60353;DHT22;46196;52.970;6.954;2022-07-29T03:30:35;15.00;99.90
60353;DHT22;46196;52.970;6.954;2022-07-29T03:33:01;15.00;99.90
60353;DHT22;46196;52.970;6.954;2022-07-29T03:35:27;15.00;99.90
60353;DHT22;46196;52.970;6.954;2022-07-29T03:37:53;15.00;99.90
60353;DHT22;46196;52.970;6.954;2022-07-29T03:40:26;15.00;99.90
60353;DHT22;46196;52.970;6.954;2022-07-29T03:42:52;15.00;99.90
60353;DHT22;46196;52.970;6.954;2022-07-29T03:45:19;15.00;99.90
60353;DHT22;46196;52.970;6.954;2022-07-29T03:47:45;15.00;99.90
60353;DHT22;46196;52.970;6.954;2022-07-29T03:50:13;15.00;99.90
60353;DHT22;46196;52.970;6.954;2022-07-29T03:52:39;15.00;99.90
60353;DHT22;46196;52.970;6.954;2022-07-29T03:55:05;15.00;99.90
60353;DHT22;46196;52.970;6.954;2022-07-29T03:57:31;15.00;99.90
60353;DHT22;46196;52.970;6.954;2022-07-29T03:59:57;15.00;99.90
60353;DHT22;46196;52.970;6.954;2022-07-29T04:02:23;15.00;99.90
60353;DHT22;46196;52.970;6.954;2022-07-29T04:04:51;15.00;99.90
60353;DHT22;46196;52.970;6.954;2022-07-29T04:07:16;15.00;99.90
60353;DHT22;46196;52.970;6.954;2022-07-29T04:09:42;15.00;99.90
60353;DHT22;46196;52.970;6.954;2022-07-29T04:12:07;15.00;99.90
60353;DHT22;46196;52.970;6.954;2022-07-29T04:14:34;15.00;99.90
60353;DHT22;46196;52.970;6.954;2022-07-29T04:17:00;15.00;99.90
60353;DHT22;46196;52.970;6.954;2022-07-29T04:19:26;15.00;99.90
60353;DHT22;46196;52.970;6.954;2022-07-29T04:21:52;15.00;99.90
60353;DHT22;46196;52.970;6.954;2022-07-29T04:24:17;15.00;99.90
60353;DHT22;46196;52.970;6.954;2022-07-29T04:26:44;14.90;99.90
60353;DHT22;46196;52.970;6.954;2022-07-29T04:29:10;15.00;99.90
60353;DHT22;46196;52.970;6.954;2022-07-29T04:31:37;15.00;99.90
60353;DHT22;46196;52.970;6.954;2022-07-29T04:34:02;15.00;99.90
60353;DHT22;46196;52.970;6.954;2022-07-29T04:36:28;15.00;99.90
60353;DHT22;46196;52.970;6.954;2022-07-29T04:38:54;15.00;99.90
60353;DHT22;46196;52.970;6.954;2022-07-29T04:41:20;15.00;99.90
60353;DHT22;46196;52.970;6.954;2022-07-29T04:43:45;15.00;99.90
60353;DHT22;46196;52.970;6.954;2022-07-29T04:46:11;15.00;99.90
60353;DHT22;46196;52.970;6.954;2022-07-29T04:48:37;15.00;99.90
60353;DHT22;46196;52.970;6.954;2022-07-29T04:51:02;15.00;99.90
60353;DHT22;46196;52.970;6.954;2022-07-29T04:53:28;15.00;99.90
60353;DHT22;46196;52.970;6.954;2022-07-29T04:55:54;15.10;99.90
60353;DHT22;46196;52.970;6.954;2022-07-29T04:58:20;15.10;99.90
60353;DHT22;46196;52.970;6.954;2022-07-29T05:00:45;15.10;99.90
60353;DHT22;46196;52.970;6.954;2022-07-29T05:03:11;15.20;99.90
60353;DHT22;46196;52.970;6.954;2022-07-29T05:05:37;15.20;99.90
60353;DHT22;46196;52.970;6.954;2022-07-29T05:08:03;15.20;99.90
60353;DHT22;46196;52.970;6.954;2022-07-29T05:10:28;15.30;99.90
60353;DHT22;46196;52.970;6.954;2022-07-29T05:12:54;15.40;99.90
60353;DHT22;46196;52.970;6.954;2022-07-29T05:15:20;15.40;99.90
60353;DHT22;46196;52.970;6.954;2022-07-29T05:17:46;15.50;99.90
60353;DHT22;46196;52.970;6.954;2022-07-29T05:20:12;15.50;99.90
60353;DHT22;46196;52.970;6.954;2022-07-29T05:22:37;15.60;99.90
60353;DHT22;46196;52.970;6.954;2022-07-29T05:25:03;15.60;99.90
60353;DHT22;46196;52.970;6.954;2022-07-29T05:27:29;15.60;99.90
60353;DHT22;46196;52.970;6.954;2022-07-29T05:29:54;15.60;99.90
60353;DHT22;46196;52.970;6.954;2022-07-29T05:32:20;15.70;99.90
60353;DHT22;46196;52.970;6.954;2022-07-29T05:34:46;15.70;99.90
60353;DHT22;46196;52.970;6.954;2022-07-29T05:37:11;15.80;99.90
60353;DHT22;46196;52.970;6.954;2022-07-29T05:39:38;15.80;99.90
60353;DHT22;46196;52.970;6.954;2022-07-29T05:42:08;15.90;99.90
60353;DHT22;46196;52.970;6.954;2022-07-29T05:44:35;15.90;99.90
60353;DHT22;46196;52.970;6.954;2022-07-29T05:47:01;15.90;99.90
60353;DHT22;46196;52.970;6.954;2022-07-29T05:49:27;16.00;99.90
60353;DHT22;46196;52.970;6.954;2022-07-29T05:51:52;16.00;99.90
60353;DHT22;46196;52.970;6.954;2022-07-29T05:54:18;16.10;99.90
60353;DHT22;46196;52.970;6.954;2022-07-29T05:56:44;16.10;99.90
60353;DHT22;46196;52.970;6.954;2022-07-29T05:59:09;16.10;99.90
60353;DHT22;46196;52.970;6.954;2022-07-29T06:01:35;16.20;99.90
60353;DHT22;46196;52.970;6.954;2022-07-29T06:04:05;16.20;99.90
60353;DHT22;46196;52.970;6.954;2022-07-29T06:06:30;16.20;99.90
60353;DHT22;46196;52.970;6.954;2022-07-29T06:08:57;16.30;99.90
60353;DHT22;46196;52.970;6.954;2022-07-29T06:11:22;16.30;99.90
60353;DHT22;46196;52.970;6.954;2022-07-29T06:13:48;16.30;99.90
60353;DHT22;46196;52.970;6.954;2022-07-29T06:16:13;16.30;99.90
60353;DHT22;46196;52.970;6.954;2022-07-29T06:18:39;16.30;99.90
60353;DHT22;46196;52.970;6.954;2022-07-29T06:21:08;16.30;99.90
60353;DHT22;46196;52.970;6.954;2022-07-29T06:23:35;16.30;99.90
60353;DHT22;46196;52.970;6.954;2022-07-29T06:26:01;16.40;99.90
60353;DHT22;46196;52.970;6.954;2022-07-29T06:28:27;16.40;99.90
60353;DHT22;46196;52.970;6.954;2022-07-29T06:30:53;16.50;99.90
60353;DHT22;46196;52.970;6.954;2022-07-29T06:33:19;16.50;99.90
60353;DHT22;46196;52.970;6.954;2022-07-29T06:35:44;16.50;99.90
60353;DHT22;46196;52.970;6.954;2022-07-29T06:38:12;16.60;99.90
60353;DHT22;46196;52.970;6.954;2022-07-29T06:40:42;16.70;99.90
60353;DHT22;46196;52.970;6.954;2022-07-29T06:43:34;16.70;99.90
60353;DHT22;46196;52.970;6.954;2022-07-29T06:46:02;16.80;99.90
60353;DHT22;46196;52.970;6.954;2022-07-29T06:48:27;16.90;99.90
60353;DHT22;46196;52.970;6.954;2022-07-29T06:50:53;16.90;99.90
60353;DHT22;46196;52.970;6.954;2022-07-29T06:53:19;16.90;99.90
60353;DHT22;46196;52.970;6.954;2022-07-29T06:55:45;16.90;99.90
60353;DHT22;46196;52.970;6.954;2022-07-29T06:58:10;16.90;99.90
60353;DHT22;46196;52.970;6.954;2022-07-29T07:00:37;16.90;99.90
60353;DHT22;46196;52.970;6.954;2022-07-29T07:03:03;17.00;99.90
60353;DHT22;46196;52.970;6.954;2022-07-29T07:05:28;17.00;99.90
60353;DHT22;46196;52.970;6.954;2022-07-29T07:07:54;17.00;99.90
60353;DHT22;46196;52.970;6.954;2022-07-29T07:10:20;17.00;99.90
60353;DHT22;46196;52.970;6.954;2022-07-29T07:12:45;17.10;99.90
60353;DHT22;46196;52.970;6.954;2022-07-29T07:15:11;17.20;99.90
60353;DHT22;46196;52.970;6.954;2022-07-29T07:17:37;17.20;99.90
60353;DHT22;46196;52.970;6.954;2022-07-29T07:20:03;17.20;99.90
60353;DHT22;46196;52.970;6.954;2022-07-29T07:22:30;17.30;99.90
60353;DHT22;46196;52.970;6.954;2022-07-29T07:24:55;17.30;99.90
60353;DHT22;46196;52.970;6.954;2022-07-29T07:27:21;17.30;99.90
60353;DHT22;46196;52.970;6.954;2022-07-29T07:29:47;17.40;99.90
60353;DHT22;46196;52.970;6.954;2022-07-29T07:32:12;17.50;99.90
60353;DHT22;46196;52.970;6.954;2022-07-29T07:34:41;17.60;99.90
60353;DHT22;46196;52.970;6.954;2022-07-29T07:37:07;17.70;99.90
60353;DHT22;46196;52.970;6.954;2022-07-29T07:39:33;17.70;99.90
60353;DHT22;46196;52.970;6.954;2022-07-29T07:41:59;17.80;99.90
60353;DHT22;46196;52.970;6.954;2022-07-29T07:44:25;17.80;99.90
60353;DHT22;46196;52.970;6.954;2022-07-29T07:46:50;17.80;99.90
60353;DHT22;46196;52.970;6.954;2022-07-29T07:49:16;17.80;99.90
60353;DHT22;46196;52.970;6.954;2022-07-29T07:51:42;17.90;99.90
60353;DHT22;46196;52.970;6.954;2022-07-29T07:54:08;17.90;99.90
60353;DHT22;46196;52.970;6.954;2022-07-29T07:56:33;18.00;99.90
60353;DHT22;46196;52.970;6.954;2022-07-29T07:58:59;18.10;99.90
60353;DHT22;46196;52.970;6.954;2022-07-29T08:01:25;18.10;99.90
60353;DHT22;46196;52.970;6.954;2022-07-29T08:03:51;18.20;99.90
60353;DHT22;46196;52.970;6.954;2022-07-29T08:06:16;18.20;99.90
60353;DHT22;46196;52.970;6.954;2022-07-29T08:08:42;18.40;99.90
60353;DHT22;46196;52.970;6.954;2022-07-29T08:11:08;18.50;99.90
60353;DHT22;46196;52.970;6.954;2022-07-29T08:13:33;18.60;99.90
60353;DHT22;46196;52.970;6.954;2022-07-29T08:15:59;18.30;99.90
60353;DHT22;46196;52.970;6.954;2022-07-29T08:18:37;18.90;99.90
60353;DHT22;46196;52.970;6.954;2022-07-29T08:21:03;19.00;99.90
60353;DHT22;46196;52.970;6.954;2022-07-29T08:23:29;19.20;99.90
60353;DHT22;46196;52.970;6.954;2022-07-29T08:26:04;19.40;99.90
60353;DHT22;46196;52.970;6.954;2022-07-29T08:28:30;19.60;99.90
60353;DHT22;46196;52.970;6.954;2022-07-29T08:30:56;19.70;99.90
60353;DHT22;46196;52.970;6.954;2022-07-29T08:33:21;19.80;99.90
60353;DHT22;46196;52.970;6.954;2022-07-29T08:35:47;19.90;99.90
60353;DHT22;46196;52.970;6.954;2022-07-29T08:38:15;20.00;99.90
60353;DHT22;46196;52.970;6.954;2022-07-29T08:40:40;20.00;99.90
60353;DHT22;46196;52.970;6.954;2022-07-29T08:43:07;20.20;99.90
60353;DHT22;46196;52.970;6.954;2022-07-29T08:45:43;20.20;99.90
60353;DHT22;46196;52.970;6.954;2022-07-29T08:48:11;20.30;99.90
60353;DHT22;46196;52.970;6.954;2022-07-29T08:50:36;20.50;99.90
60353;DHT22;46196;52.970;6.954;2022-07-29T08:53:03;20.50;99.90
60353;DHT22;46196;52.970;6.954;2022-07-29T08:55:29;20.60;99.90
60353;DHT22;46196;52.970;6.954;2022-07-29T08:57:55;20.70;99.90
60353;DHT22;46196;52.970;6.954;2022-07-29T09:00:20;20.80;99.90
60353;DHT22;46196;52.970;6.954;2022-07-29T09:02:47;20.80;99.90
60353;DHT22;46196;52.970;6.954;2022-07-29T09:05:14;20.90;99.90
60353;DHT22;46196;52.970;6.954;2022-07-29T09:07:39;20.90;99.90
60353;DHT22;46196;52.970;6.954;2022-07-29T09:10:08;20.90;99.90
60353;DHT22;46196;52.970;6.954;2022-07-29T09:12:34;21.00;99.90
60353;DHT22;46196;52.970;6.954;2022-07-29T09:15:00;21.00;99.90
60353;DHT22;46196;52.970;6.954;2022-07-29T09:17:44;21.00;99.90
60353;DHT22;46196;52.970;6.954;2022-07-29T09:20:11;21.10;99.70
60353;DHT22;46196;52.970;6.954;2022-07-29T09:22:37;21.10;99.60
60353;DHT22;46196;52.970;6.954;2022-07-29T09:25:02;21.20;99.90
60353;DHT22;46196;52.970;6.954;2022-07-29T09:27:28;21.20;99.80
60353;DHT22;46196;52.970;6.954;2022-07-29T09:30:07;21.40;99.90
60353;DHT22;46196;52.970;6.954;2022-07-29T09:32:55;21.50;99.10
60353;DHT22;46196;52.970;6.954;2022-07-29T09:35:22;21.60;99.10
60353;DHT22;46196;52.970;6.954;2022-07-29T09:37:49;21.70;99.30
60353;DHT22;46196;52.970;6.954;2022-07-29T09:40:15;21.80;98.20
60353;DHT22;46196;52.970;6.954;2022-07-29T09:42:41;22.00;98.00
60353;DHT22;46196;52.970;6.954;2022-07-29T09:45:07;22.20;97.70
60353;DHT22;46196;52.970;6.954;2022-07-29T09:47:43;22.30;97.70
60353;DHT22;46196;52.970;6.954;2022-07-29T09:50:10;22.40;98.00
60353;DHT22;46196;52.970;6.954;2022-07-29T09:52:44;22.40;96.30
60353;DHT22;46196;52.970;6.954;2022-07-29T09:55:10;22.50;96.20
60353;DHT22;46196;52.970;6.954;2022-07-29T09:57:36;22.60;96.00
60353;DHT22;46196;52.970;6.954;2022-07-29T10:00:05;22.60;96.10
60353;DHT22;46196;52.970;6.954;2022-07-29T10:02:32;22.70;96.50
60353;DHT22;46196;52.970;6.954;2022-07-29T10:04:59;22.70;95.40
60353;DHT22;46196;52.970;6.954;2022-07-29T10:07:25;22.70;95.60
60353;DHT22;46196;52.970;6.954;2022-07-29T10:09:55;22.70;96.00
60353;DHT22;46196;52.970;6.954;2022-07-29T10:12:21;22.70;96.10
60353;DHT22;46196;52.970;6.954;2022-07-29T10:14:47;22.70;95.20
60353;DHT22;46196;52.970;6.954;2022-07-29T10:17:13;22.60;95.70
60353;DHT22;46196;52.970;6.954;2022-07-29T10:19:40;22.60;96.00
60353;DHT22;46196;52.970;6.954;2022-07-29T10:22:08;22.60;95.60
60353;DHT22;46196;52.970;6.954;2022-07-29T10:24:34;22.60;95.60
60353;DHT22;46196;52.970;6.954;2022-07-29T10:27:01;22.70;95.50
60353;DHT22;46196;52.970;6.954;2022-07-29T10:29:27;22.70;96.10
60353;DHT22;46196;52.970;6.954;2022-07-29T10:37:26;22.80;94.40
60353;DHT22;46196;52.970;6.954;2022-07-29T10:40:02;22.80;94.40
60353;DHT22;46196;52.970;6.954;2022-07-29T10:42:49;22.80;93.70
60353;DHT22;46196;52.970;6.954;2022-07-29T10:45:16;22.80;94.80
60353;DHT22;46196;52.970;6.954;2022-07-29T10:47:42;22.80;94.70
60353;DHT22;46196;52.970;6.954;2022-07-29T10:50:08;22.80;94.10
60353;DHT22;46196;52.970;6.954;2022-07-29T11:00:48;22.70;94.50
60353;DHT22;46196;52.970;6.954;2022-07-29T11:05:58;22.70;94.50
60353;DHT22;46196;52.970;6.954;2022-07-29T11:08:24;22.60;94.40
60353;DHT22;46196;52.970;6.954;2022-07-29T11:10:51;22.50;94.80
60353;DHT22;46196;52.970;6.954;2022-07-29T11:16:01;22.40;95.30
60353;DHT22;46196;52.970;6.954;2022-07-29T11:18:27;22.40;95.50
60353;DHT22;46196;52.970;6.954;2022-07-29T11:20:53;22.30;94.80
60353;DHT22;46196;52.970;6.954;2022-07-29T11:25:45;22.10;96.30
60353;DHT22;46196;52.970;6.954;2022-07-29T11:28:16;22.10;97.00
60353;DHT22;46196;52.970;6.954;2022-07-29T11:30:47;22.10;96.00
60353;DHT22;46196;52.970;6.954;2022-07-29T11:33:46;22.10;96.40
60353;DHT22;46196;52.970;6.954;2022-07-29T11:36:12;22.20;97.60
60353;DHT22;46196;52.970;6.954;2022-07-29T11:38:38;22.20;97.00
60353;DHT22;46196;52.970;6.954;2022-07-29T11:41:20;22.30;97.00
60353;DHT22;46196;52.970;6.954;2022-07-29T11:43:53;22.30;97.80
60353;DHT22;46196;52.970;6.954;2022-07-29T11:49:03;22.30;99.10
60353;DHT22;46196;52.970;6.954;2022-07-29T11:51:29;22.40;98.20
60353;DHT22;46196;52.970;6.954;2022-07-29T11:53:55;22.40;99.50
60353;DHT22;46196;52.970;6.954;2022-07-29T11:56:22;22.50;98.50
60353;DHT22;46196;52.970;6.954;2022-07-29T11:58:48;22.50;98.90
60353;DHT22;46196;52.970;6.954;2022-07-29T12:01:16;22.60;98.80
60353;DHT22;46196;52.970;6.954;2022-07-29T12:03:42;22.70;98.60
60353;DHT22;46196;52.970;6.954;2022-07-29T12:06:11;22.70;97.30
60353;DHT22;46196;52.970;6.954;2022-07-29T12:08:41;22.80;97.60
60353;DHT22;46196;52.970;6.954;2022-07-29T12:11:14;22.80;98.20
60353;DHT22;46196;52.970;6.954;2022-07-29T12:13:43;22.90;97.90
60353;DHT22;46196;52.970;6.954;2022-07-29T12:16:09;22.90;97.80
60353;DHT22;46196;52.970;6.954;2022-07-29T12:18:35;23.00;97.80
60353;DHT22;46196;52.970;6.954;2022-07-29T12:21:01;23.10;97.30
60353;DHT22;46196;52.970;6.954;2022-07-29T12:23:32;23.10;96.90
60353;DHT22;46196;52.970;6.954;2022-07-29T12:25:58;23.20;97.10
60353;DHT22;46196;52.970;6.954;2022-07-29T12:28:24;23.30;95.90
60353;DHT22;46196;52.970;6.954;2022-07-29T12:30:50;23.30;96.20
60353;DHT22;46196;52.970;6.954;2022-07-29T12:35:42;23.40;95.70
60353;DHT22;46196;52.970;6.954;2022-07-29T12:38:09;23.50;95.30
60353;DHT22;46196;52.970;6.954;2022-07-29T12:40:35;23.60;95.90
60353;DHT22;46196;52.970;6.954;2022-07-29T12:43:08;23.60;95.90
60353;DHT22;46196;52.970;6.954;2022-07-29T12:45:34;23.70;94.80
60353;DHT22;46196;52.970;6.954;2022-07-29T12:48:00;23.70;95.00
60353;DHT22;46196;52.970;6.954;2022-07-29T12:50:26;23.60;94.20
60353;DHT22;46196;52.970;6.954;2022-07-29T12:52:51;23.70;94.10
60353;DHT22;46196;52.970;6.954;2022-07-29T12:58:01;23.60;94.10
60353;DHT22;46196;52.970;6.954;2022-07-29T13:00:27;23.60;94.70
60353;DHT22;46196;52.970;6.954;2022-07-29T13:02:54;23.50;94.90
60353;DHT22;46196;52.970;6.954;2022-07-29T13:05:20;23.60;95.30
60353;DHT22;46196;52.970;6.954;2022-07-29T13:07:46;23.50;95.20
60353;DHT22;46196;52.970;6.954;2022-07-29T13:12:37;23.40;95.70
60353;DHT22;46196;52.970;6.954;2022-07-29T13:15:15;23.40;96.10
60353;DHT22;46196;52.970;6.954;2022-07-29T13:17:42;23.50;96.40
60353;DHT22;46196;52.970;6.954;2022-07-29T13:20:10;23.60;96.30
60353;DHT22;46196;52.970;6.954;2022-07-29T13:22:39;23.60;95.50
60353;DHT22;46196;52.970;6.954;2022-07-29T13:25:06;23.60;95.70
60353;DHT22;46196;52.970;6.954;2022-07-29T13:27:33;23.80;95.80
60353;DHT22;46196;52.970;6.954;2022-07-29T13:29:59;23.90;95.30
60353;DHT22;46196;52.970;6.954;2022-07-29T13:32:26;23.90;94.00
60353;DHT22;46196;52.970;6.954;2022-07-29T13:35:05;24.00;94.70
60353;DHT22;46196;52.970;6.954;2022-07-29T13:37:31;24.00;94.60
60353;DHT22;46196;52.970;6.954;2022-07-29T13:39:59;24.10;94.20
60353;DHT22;46196;52.970;6.954;2022-07-29T13:42:25;24.30;94.70
60353;DHT22;46196;52.970;6.954;2022-07-29T13:44:51;24.50;94.30
60353;DHT22;46196;52.970;6.954;2022-07-29T13:47:18;24.70;93.10
60353;DHT22;46196;52.970;6.954;2022-07-29T13:49:43;24.90;93.70
60353;DHT22;46196;52.970;6.954;2022-07-29T13:52:09;25.10;92.40
60353;DHT22;46196;52.970;6.954;2022-07-29T13:54:35;25.20;90.60
60353;DHT22;46196;52.970;6.954;2022-07-29T13:57:04;25.20;84.90
60353;DHT22;46196;52.970;6.954;2022-07-29T13:59:29;25.20;84.90
60353;DHT22;46196;52.970;6.954;2022-07-29T14:01:55;25.20;85.10
60353;DHT22;46196;52.970;6.954;2022-07-29T14:04:21;25.20;84.50
60353;DHT22;46196;52.970;6.954;2022-07-29T14:06:48;25.30;81.90
60353;DHT22;46196;52.970;6.954;2022-07-29T14:09:14;25.40;82.20
60353;DHT22;46196;52.970;6.954;2022-07-29T14:11:40;25.40;83.30
60353;DHT22;46196;52.970;6.954;2022-07-29T14:14:05;25.40;78.40
60353;DHT22;46196;52.970;6.954;2022-07-29T14:16:31;25.50;79.20
60353;DHT22;46196;52.970;6.954;2022-07-29T14:18:57;25.60;78.10
60353;DHT22;46196;52.970;6.954;2022-07-29T14:21:22;25.80;76.30
60353;DHT22;46196;52.970;6.954;2022-07-29T14:23:48;26.10;75.90
60353;DHT22;46196;52.970;6.954;2022-07-29T14:26:14;26.40;76.40
60353;DHT22;46196;52.970;6.954;2022-07-29T14:28:39;26.50;72.90
60353;DHT22;46196;52.970;6.954;2022-07-29T14:31:05;26.60;71.90
60353;DHT22;46196;52.970;6.954;2022-07-29T14:33:31;26.60;69.90
60353;DHT22;46196;52.970;6.954;2022-07-29T14:35:56;26.50;69.70
60353;DHT22;46196;52.970;6.954;2022-07-29T14:38:22;26.40;66.80
60353;DHT22;46196;52.970;6.954;2022-07-29T14:40:47;26.20;68.70
60353;DHT22;46196;52.970;6.954;2022-07-29T14:43:13;26.10;66.30
60353;DHT22;46196;52.970;6.954;2022-07-29T14:45:39;25.90;66.90
60353;DHT22;46196;52.970;6.954;2022-07-29T14:48:05;25.80;67.20
60353;DHT22;46196;52.970;6.954;2022-07-29T14:50:30;25.60;68.10
60353;DHT22;46196;52.970;6.954;2022-07-29T14:52:56;25.60;68.30
60353;DHT22;46196;52.970;6.954;2022-07-29T14:55:22;25.50;68.30
60353;DHT22;46196;52.970;6.954;2022-07-29T14:57:48;25.50;69.00
60353;DHT22;46196;52.970;6.954;2022-07-29T15:00:15;25.40;69.10
60353;DHT22;46196;52.970;6.954;2022-07-29T15:02:41;25.40;68.20
60353;DHT22;46196;52.970;6.954;2022-07-29T15:05:07;25.30;68.10
60353;DHT22;46196;52.970;6.954;2022-07-29T15:07:32;25.30;68.80
60353;DHT22;46196;52.970;6.954;2022-07-29T15:09:58;25.90;70.90
60353;DHT22;46196;52.970;6.954;2022-07-29T15:12:24;25.20;67.20
60353;DHT22;46196;52.970;6.954;2022-07-29T15:14:49;25.20;68.00
60353;DHT22;46196;52.970;6.954;2022-07-29T15:17:15;25.10;68.80
60353;DHT22;46196;52.970;6.954;2022-07-29T15:19:41;25.10;67.80
60353;DHT22;46196;52.970;6.954;2022-07-29T15:22:07;25.10;69.50
60353;DHT22;46196;52.970;6.954;2022-07-29T15:24:32;25.20;70.10
60353;DHT22;46196;52.970;6.954;2022-07-29T15:26:58;25.30;66.80
60353;DHT22;46196;52.970;6.954;2022-07-29T15:29:23;25.30;66.10
60353;DHT22;46196;52.970;6.954;2022-07-29T15:31:49;25.40;65.40
60353;DHT22;46196;52.970;6.954;2022-07-29T15:34:15;25.30;64.40
60353;DHT22;46196;52.970;6.954;2022-07-29T15:36:40;25.30;65.00
60353;DHT22;46196;52.970;6.954;2022-07-29T15:39:06;25.20;66.00
60353;DHT22;46196;52.970;6.954;2022-07-29T15:41:32;25.30;66.40
60353;DHT22;46196;52.970;6.954;2022-07-29T15:43:58;25.30;65.50
60353;DHT22;46196;52.970;6.954;2022-07-29T15:46:23;25.30;64.20
60353;DHT22;46196;52.970;6.954;2022-07-29T15:49:08;25.30;66.20
60353;DHT22;46196;52.970;6.954;2022-07-29T15:51:33;25.30;66.40
60353;DHT22;46196;52.970;6.954;2022-07-29T15:54:03;25.40;67.10
60353;DHT22;46196;52.970;6.954;2022-07-29T15:56:29;25.40;67.80
60353;DHT22;46196;52.970;6.954;2022-07-29T15:58:54;25.70;66.40
60353;DHT22;46196;52.970;6.954;2022-07-29T16:01:20;25.80;64.40
60353;DHT22;46196;52.970;6.954;2022-07-29T16:03:46;25.90;63.10
60353;DHT22;46196;52.970;6.954;2022-07-29T16:06:12;25.90;62.20
60353;DHT22;46196;52.970;6.954;2022-07-29T16:08:38;25.80;63.40
60353;DHT22;46196;52.970;6.954;2022-07-29T16:11:03;25.80;63.20
60353;DHT22;46196;52.970;6.954;2022-07-29T16:13:30;25.80;63.70
60353;DHT22;46196;52.970;6.954;2022-07-29T16:15:56;25.70;62.40
60353;DHT22;46196;52.970;6.954;2022-07-29T16:18:21;25.70;63.20